Time;durP1;ratioP1;P1;durP2;ratioP2;P2;SDS_P1;SDS_P2;PMS_P1;PMS_P2;Temp;Humidity;BMP_temperature;BMP_pressure;BME280_temperature;BME280_humidity;BME280_pressure;Samples;Min_cycle;Max_cycle;Signal;HPM_P1;HPM_P2
2023/11/13 00:05:16;;;;;;;2.33;1.35;;;;;;;;;;10184569;29;20090;-75
2023/11/13 00:10:32;;;;;;;2.20;1.70;;;;;;;;;;10190155;29;20044;-75
2023/11/13 00:15:48;;;;;;;2.63;1.50;;;;;;;;;;10188076;29;20127;-75
2023/11/13 00:20:53;;;;;;;2.72;1.50;;;;;;;;;;10184759;29;20067;-75
2023/11/13 00:25:57;;;;;;;2.38;1.27;;;;;;;;;;10189536;29;20044;-75
2023/11/13 00:31:01;;;;;;;1.70;1.30;;;;;;;;;;10182964;29;20067;-76
2023/11/13 00:36:07;;;;;;;1.42;1.33;;;;;;;;;;10182542;29;20405;-76
2023/11/13 00:41:11;;;;;;;2.30;1.57;;;;;;;;;;10185185;29;20044;-76
2023/11/13 00:46:23;;;;;;;1.70;1.27;;;;;;;;;;10187689;29;20366;-75
2023/11/13 00:58:24;;;;;;;1.80;1.55;;;;;;;;;;10173264;29;20050;-75
2023/11/13 01:03:42;;;;;;;3.72;2.10;;;;;;;;;;10196792;29;20063;-76
2023/11/13 01:08:49;;;;;;;2.05;1.75;;;;;;;;;;10189734;29;20106;-76
2023/11/13 01:13:55;;;;;;;2.28;1.85;;;;;;;;;;10179448;29;20047;-76
2023/11/13 01:18:59;;;;;;;1.92;1.30;;;;;;;;;;10189712;29;20056;-76
2023/11/13 01:24:07;;;;;;;1.25;1.15;;;;;;;;;;10188540;29;20504;-76
2023/11/13 01:29:10;;;;;;;4.00;1.50;;;;;;;;;;10166195;29;20063;-76
2023/11/13 01:34:17;;;;;;;2.42;1.25;;;;;;;;;;10167018;29;20052;-76
2023/11/13 01:39:24;;;;;;;1.63;1.33;;;;;;;;;;10187980;29;20071;-77
2023/11/13 02:05:16;;;;;;;1.85;1.20;;;;;;;;;;10290809;23;20499;-86
2023/11/13 02:10:20;;;;;;;1.63;1.07;;;;;;;;;;10147054;29;20058;-86
2023/11/13 02:15:24;;;;;;;2.33;1.70;;;;;;;;;;10152349;29;20087;-85
2023/11/13 02:20:30;;;;;;;1.92;1.70;;;;;;;;;;10159834;29;20236;-86
2023/11/13 02:25:41;;;;;;;1.83;1.42;;;;;;;;;;10150014;29;20511;-86
2023/11/13 02:30:45;;;;;;;1.52;1.42;;;;;;;;;;10143999;29;20099;-86
2023/11/13 02:35:48;;;;;;;1.23;1.10;;;;;;;;;;10145266;29;20055;-87
2023/11/13 02:40:53;;;;;;;1.13;1.08;;;;;;;;;;10154647;29;20055;-87
2023/11/13 02:45:58;;;;;;;1.02;0.93;;;;;;;;;;10137181;29;20058;-87
2023/11/13 02:51:02;;;;;;;1.10;1.00;;;;;;;;;;10173094;29;20044;-85
2023/11/13 02:56:07;;;;;;;0.70;0.70;;;;;;;;;;10158318;29;20073;-86
2023/11/13 03:01:11;;;;;;;0.77;0.77;;;;;;;;;;10153504;29;23067;-86
2023/11/13 03:06:15;;;;;;;0.63;0.60;;;;;;;;;;10169571;29;20716;-87
2023/11/13 03:11:36;;;;;;;0.60;0.60;;;;;;;;;;10147628;29;20816;-86
2023/11/13 03:16:47;;;;;;;0.40;0.40;;;;;;;;;;10149142;29;20071;-87
2023/11/13 03:21:51;;;;;;;0.40;0.40;;;;;;;;;;10153115;29;20152;-87
2023/11/13 03:26:57;;;;;;;0.85;0.50;;;;;;;;;;10148293;29;20056;-90
2023/11/13 03:32:01;;;;;;;0.40;0.40;;;;;;;;;;10160847;29;20127;-90
2023/11/13 03:37:06;;;;;;;0.40;0.40;;;;;;;;;;10155836;29;20099;-89
2023/11/13 03:42:12;;;;;;;0.40;0.40;;;;;;;;;;10144333;29;20056;-90
2023/11/13 03:47:18;;;;;;;0.40;0.40;;;;;;;;;;10157225;29;20060;-89
2023/11/13 03:52:25;;;;;;;0.40;0.40;;;;;;;;;;10151487;29;20052;-89
2023/11/13 03:57:33;;;;;;;1.23;0.85;;;;;;;;;;10152353;29;20420;-89
2023/11/13 04:02:37;;;;;;;1.70;1.20;;;;;;;;;;10147146;29;20052;-89
2023/11/13 04:07:41;;;;;;;1.20;0.80;;;;;;;;;;10156197;29;20040;-90
2023/11/13 04:12:46;;;;;;;0.50;0.50;;;;;;;;;;10154362;29;20140;-89
2023/11/13 04:17:51;;;;;;;0.30;0.30;;;;;;;;;;10156164;29;20041;-90
2023/11/13 04:22:55;;;;;;;0.40;0.40;;;;;;;;;;10145017;29;20051;-90
2023/11/13 04:28:00;;;;;;;0.40;0.35;;;;;;;;;;10170705;29;20120;-90
2023/11/13 04:33:13;;;;;;;0.30;0.30;;;;;;;;;;10157658;29;20052;-90
2023/11/13 04:38:17;;;;;;;0.30;0.30;;;;;;;;;;10156855;29;20734;-92
2023/11/13 04:43:22;;;;;;;0.35;0.35;;;;;;;;;;10175750;29;20127;-90
2023/11/13 04:48:26;;;;;;;0.40;0.40;;;;;;;;;;10154508;29;20052;-91
2023/11/13 04:53:31;;;;;;;0.50;0.40;;;;;;;;;;10160602;29;20047;-89
2023/11/13 04:58:36;;;;;;;0.63;0.63;;;;;;;;;;10162222;29;20068;-89
2023/11/13 05:03:40;;;;;;;0.40;0.40;;;;;;;;;;10164372;29;20083;-89
2023/11/13 05:08:44;;;;;;;0.52;0.40;;;;;;;;;;10137838;29;20048;-89
2023/11/13 05:13:50;;;;;;;0.30;0.30;;;;;;;;;;10169716;29;20179;-89
2023/11/13 05:18:55;;;;;;;0.30;0.30;;;;;;;;;;10174697;29;20103;-88
2023/11/13 05:24:01;;;;;;;0.47;0.40;;;;;;;;;;10145415;29;20139;-87
2023/11/13 05:29:09;;;;;;;0.30;0.30;;;;;;;;;;10155194;29;20055;-88
2023/11/13 05:34:13;;;;;;;0.22;0.22;;;;;;;;;;10140974;29;20072;-90
2023/11/13 05:39:17;;;;;;;0.20;0.20;;;;;;;;;;10152666;29;20047;-88
2023/11/13 05:44:23;;;;;;;0.20;0.20;;;;;;;;;;10156899;29;20048;-88
2023/11/13 05:49:26;;;;;;;0.63;0.20;;;;;;;;;;10152192;29;20064;-90
2023/11/13 05:54:30;;;;;;;0.20;0.20;;;;;;;;;;10147866;29;20062;-86
2023/11/13 05:59:35;;;;;;;0.40;0.30;;;;;;;;;;10162285;29;20175;-87
2023/11/13 06:04:44;;;;;;;0.30;0.30;;;;;;;;;;10165185;29;20056;-88
2023/11/13 06:09:48;;;;;;;0.60;0.40;;;;;;;;;;10141844;29;20072;-85
2023/11/13 06:14:56;;;;;;;0.43;0.40;;;;;;;;;;10156479;29;20543;-85
2023/11/13 06:19:59;;;;;;;3.03;0.50;;;;;;;;;;10151272;29;20579;-84
2023/11/13 06:25:08;;;;;;;2.05;0.60;;;;;;;;;;10148186;29;20111;-85
2023/11/13 06:30:14;;;;;;;0.50;0.50;;;;;;;;;;10130185;29;20056;-85
2023/11/13 06:35:23;;;;;;;1.10;0.43;;;;;;;;;;10153450;29;20133;-92
2023/11/13 06:40:30;;;;;;;2.22;0.63;;;;;;;;;;10154904;29;20060;-90
2023/11/13 06:45:40;;;;;;;1.48;0.60;;;;;;;;;;10153449;29;20055;-89
2023/11/13 06:50:53;;;;;;;1.35;0.60;;;;;;;;;;10165381;29;20107;-90
2023/11/13 06:55:57;;;;;;;1.90;0.60;;;;;;;;;;10152285;29;20052;-88
2023/11/13 07:01:07;;;;;;;3.00;0.80;;;;;;;;;;10139027;29;20051;-86
2023/11/13 07:06:12;;;;;;;1.80;0.80;;;;;;;;;;10135682;29;20060;-88
2023/11/13 07:11:22;;;;;;;1.38;0.60;;;;;;;;;;10135305;29;20128;-89
2023/11/13 07:16:31;;;;;;;1.55;0.70;;;;;;;;;;10157284;29;20051;-89
2023/11/13 07:21:35;;;;;;;2.22;0.90;;;;;;;;;;10144124;29;20075;-89
2023/11/13 07:26:39;;;;;;;1.65;0.65;;;;;;;;;;10141604;29;20062;-89
2023/11/13 07:31:44;;;;;;;1.70;0.77;;;;;;;;;;10167771;29;20103;-88
2023/11/13 07:36:48;;;;;;;1.13;0.70;;;;;;;;;;10166702;29;20040;-88
2023/11/13 07:41:53;;;;;;;1.83;0.80;;;;;;;;;;10148642;29;20055;-88
2023/11/13 07:47:26;;;;;;;2.45;0.95;;;;;;;;;;10155882;29;20040;-87
2023/11/13 07:52:31;;;;;;;0.70;0.55;;;;;;;;;;10152411;29;20131;-86
2023/11/13 07:57:38;;;;;;;1.35;0.82;;;;;;;;;;10151720;29;20500;-87
2023/11/13 08:02:50;;;;;;;1.95;1.00;;;;;;;;;;10129077;29;20064;-86
2023/11/13 08:07:54;;;;;;;2.53;0.90;;;;;;;;;;10152138;29;20062;-86
2023/11/13 08:13:03;;;;;;;1.33;0.60;;;;;;;;;;10145492;29;20075;-86
2023/11/13 08:18:13;;;;;;;2.08;0.80;;;;;;;;;;10140200;29;20460;-86
2023/11/13 08:23:19;;;;;;;2.05;0.88;;;;;;;;;;10158297;29;20048;-86
2023/11/13 08:28:24;;;;;;;4.30;1.25;;;;;;;;;;10129675;29;20052;-87
2023/11/13 08:33:29;;;;;;;1.52;1.05;;;;;;;;;;10137471;29;20880;-86
2023/11/13 08:38:32;;;;;;;2.17;1.23;;;;;;;;;;10138734;29;20056;-87
2023/11/13 08:43:40;;;;;;;2.55;1.00;;;;;;;;;;10163232;29;20055;-86
2023/11/13 08:48:45;;;;;;;1.48;0.90;;;;;;;;;;10161688;29;20059;-86
2023/11/13 08:53:51;;;;;;;2.17;0.80;;;;;;;;;;10135935;29;20059;-86
2023/11/13 08:59:01;;;;;;;1.83;0.80;;;;;;;;;;10142144;29;20131;-86
2023/11/13 09:04:06;;;;;;;2.42;0.93;;;;;;;;;;10146887;29;20122;-86
2023/11/13 09:09:13;;;;;;;1.42;0.85;;;;;;;;;;10149666;29;20654;-86
2023/11/13 09:14:22;;;;;;;3.20;1.08;;;;;;;;;;10132993;29;20133;-85
2023/11/13 09:19:54;;;;;;;3.08;1.23;;;;;;;;;;10135613;29;20052;-86
2023/11/13 09:25:05;;;;;;;2.60;0.75;;;;;;;;;;10153749;29;20060;-85
2023/11/13 09:30:47;;;;;;;2.40;0.80;;;;;;;;;;10217003;23;20071;-78
2023/11/13 09:36:44;;;;;;;2.08;0.80;;;;;;;;;;10167187;29;20055;-77
2023/11/13 10:08:14;;;;;;;0.93;0.70;;;;;;;;;;10108716;29;20073;-85
2023/11/13 10:13:23;;;;;;;2.60;0.73;;;;;;;;;;10097420;29;20040;-85
2023/11/13 10:18:28;;;;;;;1.38;0.65;;;;;;;;;;10078859;29;20341;-85
2023/11/13 10:23:36;;;;;;;0.50;0.50;;;;;;;;;;10095843;29;20067;-84
2023/11/13 10:28:41;;;;;;;0.95;0.45;;;;;;;;;;10077441;29;20460;-85
2023/11/13 10:33:59;;;;;;;1.20;0.50;;;;;;;;;;10086330;29;20061;-85
2023/11/13 10:39:11;;;;;;;1.05;0.57;;;;;;;;;;10098650;29;20081;-85
2023/11/13 10:44:24;;;;;;;0.57;0.55;;;;;;;;;;10071610;29;20525;-84
2023/11/13 10:49:28;;;;;;;1.10;0.60;;;;;;;;;;10104388;29;20068;-85
2023/11/13 10:54:33;;;;;;;2.42;0.70;;;;;;;;;;10095190;29;20469;-85
2023/11/13 10:59:37;;;;;;;0.55;0.50;;;;;;;;;;10078910;29;20147;-85
2023/11/13 11:04:42;;;;;;;0.85;0.40;;;;;;;;;;10086225;29;20049;-85
2023/11/13 11:09:48;;;;;;;0.50;0.50;;;;;;;;;;10087291;29;20057;-82
2023/11/13 11:15:05;;;;;;;1.23;0.57;;;;;;;;;;10104918;29;20042;-82
2023/11/13 11:20:17;;;;;;;0.82;0.63;;;;;;;;;;10086587;29;20473;-83
2023/11/13 11:25:44;;;;;;;1.08;0.63;;;;;;;;;;10076570;29;20461;-83
2023/11/13 11:30:47;;;;;;;0.73;0.50;;;;;;;;;;10096951;29;20508;-83
2023/11/13 11:35:51;;;;;;;0.82;0.77;;;;;;;;;;10088567;29;20141;-82
2023/11/13 11:40:58;;;;;;;1.13;0.90;;;;;;;;;;10090246;29;20305;-84
2023/11/13 11:46:04;;;;;;;1.00;0.70;;;;;;;;;;10067426;29;20049;-84
2023/11/13 11:51:15;;;;;;;0.80;0.50;;;;;;;;;;10072299;29;20053;-84
2023/11/13 11:56:20;;;;;;;1.38;0.57;;;;;;;;;;10090476;29;20049;-84
2023/11/13 12:01:27;;;;;;;1.55;0.55;;;;;;;;;;10084474;29;20059;-84
2023/11/13 12:06:31;;;;;;;0.77;0.55;;;;;;;;;;10077721;29;20509;-84
2023/11/13 12:11:36;;;;;;;0.88;0.60;;;;;;;;;;10081450;29;20101;-85
2023/11/13 12:16:39;;;;;;;1.20;0.65;;;;;;;;;;10088518;29;20049;-84
2023/11/13 12:21:43;;;;;;;0.65;0.60;;;;;;;;;;10079702;29;20112;-86
2023/11/13 12:26:49;;;;;;;0.40;0.40;;;;;;;;;;10071265;29;20045;-87
2023/11/13 12:31:54;;;;;;;0.30;0.30;;;;;;;;;;10102907;29;20160;-85
2023/11/13 12:36:58;;;;;;;0.30;0.30;;;;;;;;;;10076915;29;20057;-85
2023/11/13 12:42:04;;;;;;;0.20;0.20;;;;;;;;;;10088956;29;20089;-84
2023/11/13 12:47:10;;;;;;;0.30;0.30;;;;;;;;;;10084037;29;20732;-84
2023/11/13 12:52:16;;;;;;;0.20;0.20;;;;;;;;;;10087560;29;20049;-86
2023/11/13 12:57:20;;;;;;;0.60;0.30;;;;;;;;;;10095381;29;20049;-86
2023/11/13 13:02:25;;;;;;;0.22;0.20;;;;;;;;;;10088892;29;20052;-86
2023/11/13 13:07:29;;;;;;;0.20;0.20;;;;;;;;;;10082537;29;20576;-86
2023/11/13 13:12:34;;;;;;;0.17;0.17;;;;;;;;;;10087921;29;20935;-85
2023/11/13 13:17:39;;;;;;;0.47;0.28;;;;;;;;;;10086717;29;20044;-86
2023/11/13 13:22:44;;;;;;;0.20;0.20;;;;;;;;;;10087744;29;20060;-87
2023/11/13 13:27:49;;;;;;;0.40;0.30;;;;;;;;;;10101694;29;20501;-85
2023/11/13 13:32:53;;;;;;;0.30;0.30;;;;;;;;;;10104841;29;20053;-87
2023/11/13 13:37:59;;;;;;;0.30;0.30;;;;;;;;;;10075472;29;20048;-82
2023/11/13 13:43:06;;;;;;;0.55;0.45;;;;;;;;;;10080756;29;20049;-82
2023/11/13 13:48:13;;;;;;;0.30;0.30;;;;;;;;;;10094377;29;20045;-84
2023/11/13 13:53:18;;;;;;;0.90;0.57;;;;;;;;;;10108139;29;20064;-83
2023/11/13 13:58:25;;;;;;;0.75;0.57;;;;;;;;;;10093514;29;20056;-83
2023/11/13 14:03:29;;;;;;;0.30;0.30;;;;;;;;;;10118448;29;20580;-83
2023/11/13 14:08:32;;;;;;;0.32;0.20;;;;;;;;;;10085088;29;20588;-83
2023/11/13 14:13:39;;;;;;;0.73;0.38;;;;;;;;;;10085404;29;20061;-83
2023/11/13 14:18:42;;;;;;;0.22;0.22;;;;;;;;;;10088099;29;20564;-82
2023/11/13 14:23:46;;;;;;;0.20;0.20;;;;;;;;;;10091167;29;20516;-82
2023/11/13 14:28:51;;;;;;;0.40;0.25;;;;;;;;;;10086732;29;20058;-83
2023/11/13 14:33:54;;;;;;;0.20;0.20;;;;;;;;;;10085082;29;20045;-83
2023/11/13 14:39:00;;;;;;;0.20;0.20;;;;;;;;;;10112479;29;20040;-83
2023/11/13 14:44:06;;;;;;;0.32;0.30;;;;;;;;;;10101668;29;20084;-86
2023/11/13 14:49:18;;;;;;;0.73;0.30;;;;;;;;;;10088972;29;20194;-87
2023/11/13 14:54:22;;;;;;;0.15;0.13;;;;;;;;;;10080841;29;20041;-88
2023/11/13 14:59:29;;;;;;;0.57;0.30;;;;;;;;;;10073237;29;20098;-87
2023/11/13 15:04:32;;;;;;;0.38;0.30;;;;;;;;;;10075800;29;20108;-88
2023/11/13 15:09:36;;;;;;;0.30;0.20;;;;;;;;;;10099416;29;20080;-88
2023/11/13 15:14:41;;;;;;;1.23;0.20;;;;;;;;;;10074564;29;20053;-87
2023/11/13 15:19:44;;;;;;;0.95;0.20;;;;;;;;;;10075886;29;20591;-89
2023/11/13 15:24:48;;;;;;;1.75;0.30;;;;;;;;;;10089087;29;20072;-87
2023/11/13 15:29:52;;;;;;;0.57;0.10;;;;;;;;;;10139558;23;20052;-87
2023/11/13 15:34:56;;;;;;;0.20;0.20;;;;;;;;;;10110213;29;20104;-87
2023/11/13 15:40:00;;;;;;;0.10;0.10;;;;;;;;;;10108616;29;20044;-87
2023/11/13 15:45:06;;;;;;;0.20;0.20;;;;;;;;;;10113444;29;20142;-91
2023/11/13 15:50:11;;;;;;;0.60;0.20;;;;;;;;;;10114074;29;20424;-92
2023/11/13 15:55:16;;;;;;;;;;;;;;;;;;10140873;29;20096;-89
2023/11/13 16:00:35;;;;;;;0.20;0.20;;;;;;;;;;10128470;29;19946;-88
2023/11/13 16:05:40;;;;;;;0.30;0.20;;;;;;;;;;10103556;29;20060;-90
2023/11/13 16:10:46;;;;;;;;;;;;;;;;;;10106632;29;20199;-89
2023/11/13 16:15:51;;;;;;;0.40;0.22;;;;;;;;;;10115025;29;19923;-89
2023/11/13 16:20:55;;;;;;;0.10;0.10;;;;;;;;;;10120864;29;20128;-89
2023/11/13 16:25:58;;;;;;;0.20;0.20;;;;;;;;;;10112350;29;20056;-89
2023/11/13 16:31:03;;;;;;;3.28;1.35;;;;;;;;;;10122023;29;20052;-89
2023/11/13 16:36:09;;;;;;;0.60;0.40;;;;;;;;;;10114330;29;20495;-89
2023/11/13 16:41:14;;;;;;;0.80;0.30;;;;;;;;;;10122467;29;20048;-89
2023/11/13 16:46:22;;;;;;;0.38;0.38;;;;;;;;;;10138950;29;20052;-89
2023/11/13 16:51:28;;;;;;;0.50;0.45;;;;;;;;;;10130708;29;20051;-89
2023/11/13 16:56:31;;;;;;;0.40;0.40;;;;;;;;;;10098188;29;20143;-89
2023/11/13 17:01:37;;;;;;;0.40;0.20;;;;;;;;;;10096206;29;20421;-89
2023/11/13 17:06:45;;;;;;;0.20;0.20;;;;;;;;;;10113767;29;20061;-88
2023/11/13 17:11:51;;;;;;;0.93;0.20;;;;;;;;;;10107547;29;20044;-88
2023/11/13 17:16:58;;;;;;;0.30;0.20;;;;;;;;;;10109769;29;20055;-88
2023/11/13 17:22:08;;;;;;;0.13;0.13;;;;;;;;;;10112470;29;20060;-89
2023/11/13 17:27:12;;;;;;;0.15;0.15;;;;;;;;;;10101652;29;20044;-87
2023/11/13 17:39:31;;;;;;;0.60;0.40;;;;;;;;;;9966089;29;20258;-76
2023/11/13 18:31:31;;;;;;;2.50;0.90;;;;;;;;;;10153185;29;20647;-87
2023/11/13 18:43:24;;;;;;;3.40;1.27;;;;;;;;;;10013696;29;20042;-87
2023/11/13 18:48:30;;;;;;;4.25;1.38;;;;;;;;;;10005557;29;20429;-86
2023/11/13 18:53:33;;;;;;;3.95;1.45;;;;;;;;;;9999770;29;20072;-86
2023/11/13 18:58:38;;;;;;;4.43;1.60;;;;;;;;;;10002481;29;20058;-87
2023/11/13 19:03:43;;;;;;;2.67;0.80;;;;;;;;;;10017837;29;20568;-86
2023/11/13 19:08:47;;;;;;;7.30;2.03;;;;;;;;;;10021057;29;20526;-87
2023/11/13 19:13:52;;;;;;;4.55;2.40;;;;;;;;;;10111153;29;20304;-86
2023/11/13 19:18:57;;;;;;;5.05;2.53;;;;;;;;;;10135628;29;20055;-87
2023/11/13 19:24:01;;;;;;;6.50;2.30;;;;;;;;;;10158124;29;20104;-87
2023/11/13 19:29:05;;;;;;;6.13;2.38;;;;;;;;;;10133854;29;20048;-87
2023/11/13 19:34:10;;;;;;;2.63;1.27;;;;;;;;;;10123952;29;20135;-86
2023/11/13 19:39:13;;;;;;;3.88;1.67;;;;;;;;;;10159288;29;20113;-86
2023/11/13 19:44:17;;;;;;;5.75;1.88;;;;;;;;;;10150707;29;20471;-86
2023/11/13 19:49:22;;;;;;;6.70;1.77;;;;;;;;;;10171192;29;20112;-89
2023/11/13 19:54:28;;;;;;;5.93;1.80;;;;;;;;;;10159678;29;20055;-88
2023/11/13 19:59:32;;;;;;;5.80;2.05;;;;;;;;;;10142545;29;20056;-87
2023/11/13 20:04:37;;;;;;;4.45;1.30;;;;;;;;;;10152906;29;20059;-87
2023/11/13 20:09:41;;;;;;;4.63;1.60;;;;;;;;;;10153982;29;20131;-87
2023/11/13 20:14:44;;;;;;;7.28;2.92;;;;;;;;;;10152749;29;20079;-86
2023/11/13 20:19:50;;;;;;;7.97;2.30;;;;;;;;;;10146759;29;20063;-86
2023/11/13 20:24:54;;;;;;;8.32;2.78;;;;;;;;;;10148148;29;20055;-86
2023/11/13 20:29:57;;;;;;;8.65;3.03;;;;;;;;;;10162854;29;20056;-89
2023/11/13 20:35:04;;;;;;;6.25;2.60;;;;;;;;;;10162264;29;20055;-87
2023/11/13 20:40:09;;;;;;;6.68;1.77;;;;;;;;;;10145519;29;20183;-88
2023/11/13 20:45:13;;;;;;;6.25;2.25;;;;;;;;;;10166919;29;20036;-86
2023/11/13 20:50:18;;;;;;;9.60;2.78;;;;;;;;;;10150387;29;20056;-90
2023/11/13 20:55:21;;;;;;;9.75;2.10;;;;;;;;;;10167308;29;20048;-86
2023/11/13 21:00:25;;;;;;;8.02;1.95;;;;;;;;;;10145201;29;20055;-86
2023/11/13 21:05:30;;;;;;;5.78;1.88;;;;;;;;;;10152119;29;20048;-86
2023/11/13 21:10:33;;;;;;;10.85;2.80;;;;;;;;;;10145004;29;20047;-89
2023/11/13 21:15:39;;;;;;;5.47;1.58;;;;;;;;;;10141718;29;20100;-88
2023/11/13 21:20:44;;;;;;;8.25;1.90;;;;;;;;;;10168225;29;20052;-88
2023/11/13 21:25:50;;;;;;;7.80;2.40;;;;;;;;;;10149029;29;20051;-86
2023/11/13 21:30:54;;;;;;;7.32;2.72;;;;;;;;;;10166517;29;20088;-87
2023/11/13 21:35:59;;;;;;;6.72;2.00;;;;;;;;;;10150431;29;20100;-88
2023/11/13 21:41:02;;;;;;;13.40;4.13;;;;;;;;;;10168813;29;20079;-86
2023/11/13 21:46:08;;;;;;;16.45;4.97;;;;;;;;;;10150412;29;20096;-88
2023/11/13 21:51:13;;;;;;;15.87;5.27;;;;;;;;;;10160974;29;20059;-86
2023/11/13 21:56:16;;;;;;;21.90;7.28;;;;;;;;;;10180705;29;20045;-86
2023/11/13 22:01:20;;;;;;;29.52;11.50;;;;;;;;;;10155534;29;20172;-86
2023/11/13 22:06:24;;;;;;;15.65;5.90;;;;;;;;;;10155961;29;20047;-86
2023/11/13 22:11:28;;;;;;;17.40;5.90;;;;;;;;;;10161176;29;20056;-89
2023/11/13 22:16:31;;;;;;;16.77;5.82;;;;;;;;;;10164916;29;20047;-88
2023/11/13 22:21:37;;;;;;;12.52;4.50;;;;;;;;;;10162635;29;20267;-87
2023/11/13 22:26:40;;;;;;;22.35;6.82;;;;;;;;;;10172352;29;20572;-87
2023/11/13 22:31:44;;;;;;;11.43;4.93;;;;;;;;;;10164558;29;20140;-87
2023/11/13 22:36:48;;;;;;;12.25;4.78;;;;;;;;;;10170270;29;20511;-89
2023/11/13 22:41:52;;;;;;;18.02;4.82;;;;;;;;;;10155317;29;20052;-87
2023/11/13 22:46:55;;;;;;;8.93;3.45;;;;;;;;;;10144374;29;20064;-86
2023/11/13 22:52:00;;;;;;;6.95;3.03;;;;;;;;;;10164256;29;20056;-87
2023/11/13 22:57:05;;;;;;;12.25;2.95;;;;;;;;;;10163468;29;20052;-86
2023/11/13 23:02:09;;;;;;;7.57;2.40;;;;;;;;;;10174341;29;20083;-90
2023/11/13 23:07:14;;;;;;;10.23;3.42;;;;;;;;;;10157492;29;20052;-90
2023/11/13 23:12:18;;;;;;;12.73;4.35;;;;;;;;;;10162583;29;20044;-88
2023/11/13 23:17:21;;;;;;;10.02;2.60;;;;;;;;;;10159724;29;20753;-87
2023/11/13 23:22:26;;;;;;;12.25;2.58;;;;;;;;;;10166931;29;20052;-86
2023/11/13 23:27:29;;;;;;;7.50;2.13;;;;;;;;;;10151258;29;20084;-86
2023/11/13 23:32:33;;;;;;;8.25;1.83;;;;;;;;;;10162209;29;20075;-88
2023/11/13 23:37:37;;;;;;;5.65;1.50;;;;;;;;;;10149482;29;20064;-86
2023/11/13 23:42:42;;;;;;;7.20;2.10;;;;;;;;;;10161126;29;20064;-86
2023/11/13 23:47:45;;;;;;;13.10;3.33;;;;;;;;;;10153555;29;20063;-88
2023/11/13 23:52:50;;;;;;;7.35;1.95;;;;;;;;;;10175413;29;20048;-87
2023/11/13 23:57:53;;;;;;;11.85;2.47;;;;;;;;;;10140756;29;20090;-87
